sensor_id;sensor_type;location;lat;lon;timestamp;P1;durP1;ratioP1;P2;durP2;ratioP2
11933;SDS011;6026;48.784;9.198;2023-07-20T00:02:10;0.60;;;0.60;;
11933;SDS011;6026;48.784;9.198;2023-07-20T00:04:35;0.70;;;0.70;;
11933;SDS011;6026;48.784;9.198;2023-07-20T00:07:03;0.80;;;0.80;;
11933;SDS011;6026;48.784;9.198;2023-07-20T00:09:29;0.60;;;0.60;;
11933;SDS011;6026;48.784;9.198;2023-07-20T00:11:54;0.77;;;0.77;;
11933;SDS011;6026;48.784;9.198;2023-07-20T00:14:20;0.77;;;0.77;;
11933;SDS011;6026;48.784;9.198;2023-07-20T00:16:46;0.70;;;0.70;;
11933;SDS011;6026;48.784;9.198;2023-07-20T00:19:17;0.80;;;0.80;;
11933;SDS011;6026;48.784;9.198;2023-07-20T00:21:42;0.50;;;0.50;;
11933;SDS011;6026;48.784;9.198;2023-07-20T00:24:08;0.50;;;0.50;;
11933;SDS011;6026;48.784;9.198;2023-07-20T00:26:33;0.70;;;0.70;;
11933;SDS011;6026;48.784;9.198;2023-07-20T00:28:59;0.60;;;0.60;;
11933;SDS011;6026;48.784;9.198;2023-07-20T00:31:24;0.73;;;0.73;;
11933;SDS011;6026;48.784;9.198;2023-07-20T00:33:51;0.80;;;0.80;;
11933;SDS011;6026;48.784;9.198;2023-07-20T00:36:17;0.80;;;0.80;;
11933;SDS011;6026;48.784;9.198;2023-07-20T00:38:43;0.53;;;0.53;;
11933;SDS011;6026;48.784;9.198;2023-07-20T00:41:08;0.70;;;0.70;;
11933;SDS011;6026;48.784;9.198;2023-07-20T00:43:34;0.60;;;0.60;;
11933;SDS011;6026;48.784;9.198;2023-07-20T00:45:59;0.70;;;0.70;;
11933;SDS011;6026;48.784;9.198;2023-07-20T00:48:25;0.60;;;0.60;;
11933;SDS011;6026;48.784;9.198;2023-07-20T00:50:51;0.63;;;0.63;;
11933;SDS011;6026;48.784;9.198;2023-07-20T00:53:16;0.50;;;0.50;;
11933;SDS011;6026;48.784;9.198;2023-07-20T00:55:42;0.80;;;0.80;;
11933;SDS011;6026;48.784;9.198;2023-07-20T00:58:08;0.60;;;0.60;;
11933;SDS011;6026;48.784;9.198;2023-07-20T01:00:33;0.67;;;0.67;;
11933;SDS011;6026;48.784;9.198;2023-07-20T01:02:59;0.80;;;0.80;;
11933;SDS011;6026;48.784;9.198;2023-07-20T01:05:26;0.83;;;0.83;;
11933;SDS011;6026;48.784;9.198;2023-07-20T01:08:12;0.80;;;0.80;;
11933;SDS011;6026;48.784;9.198;2023-07-20T01:10:51;0.70;;;0.70;;
11933;SDS011;6026;48.784;9.198;2023-07-20T01:13:22;0.80;;;0.80;;
11933;SDS011;6026;48.784;9.198;2023-07-20T01:15:56;0.90;;;0.90;;
11933;SDS011;6026;48.784;9.198;2023-07-20T01:18:24;0.70;;;0.70;;
11933;SDS011;6026;48.784;9.198;2023-07-20T01:20:50;0.70;;;0.70;;
11933;SDS011;6026;48.784;9.198;2023-07-20T01:29:33;0.80;;;0.80;;
11933;SDS011;6026;48.784;9.198;2023-07-20T01:32:15;0.50;;;0.50;;
11933;SDS011;6026;48.784;9.198;2023-07-20T01:34:43;0.70;;;0.70;;
11933;SDS011;6026;48.784;9.198;2023-07-20T01:37:10;0.63;;;0.63;;
11933;SDS011;6026;48.784;9.198;2023-07-20T01:39:37;0.70;;;0.70;;
11933;SDS011;6026;48.784;9.198;2023-07-20T01:42:04;0.57;;;0.57;;
11933;SDS011;6026;48.784;9.198;2023-07-20T01:44:29;0.60;;;0.60;;
11933;SDS011;6026;48.784;9.198;2023-07-20T01:46:55;0.57;;;0.57;;
11933;SDS011;6026;48.784;9.198;2023-07-20T01:49:21;0.60;;;0.60;;
11933;SDS011;6026;48.784;9.198;2023-07-20T01:51:46;0.73;;;0.73;;
11933;SDS011;6026;48.784;9.198;2023-07-20T01:54:12;0.80;;;0.80;;
11933;SDS011;6026;48.784;9.198;2023-07-20T01:56:37;0.70;;;0.70;;
11933;SDS011;6026;48.784;9.198;2023-07-20T01:59:03;0.40;;;0.40;;
11933;SDS011;6026;48.784;9.198;2023-07-20T02:01:28;0.73;;;0.73;;
11933;SDS011;6026;48.784;9.198;2023-07-20T02:03:54;0.77;;;0.77;;
11933;SDS011;6026;48.784;9.198;2023-07-20T02:06:19;0.60;;;0.60;;
11933;SDS011;6026;48.784;9.198;2023-07-20T02:08:45;0.70;;;0.70;;
11933;SDS011;6026;48.784;9.198;2023-07-20T02:11:11;0.67;;;0.67;;
11933;SDS011;6026;48.784;9.198;2023-07-20T02:13:36;0.70;;;0.70;;
11933;SDS011;6026;48.784;9.198;2023-07-20T02:16:02;0.90;;;0.90;;
11933;SDS011;6026;48.784;9.198;2023-07-20T02:18:27;0.70;;;0.70;;
11933;SDS011;6026;48.784;9.198;2023-07-20T02:20:53;0.53;;;0.53;;
11933;SDS011;6026;48.784;9.198;2023-07-20T02:23:19;0.80;;;0.80;;
11933;SDS011;6026;48.784;9.198;2023-07-20T02:25:45;0.60;;;0.60;;
11933;SDS011;6026;48.784;9.198;2023-07-20T02:28:12;0.70;;;0.70;;
11933;SDS011;6026;48.784;9.198;2023-07-20T02:30:39;0.80;;;0.80;;
11933;SDS011;6026;48.784;9.198;2023-07-20T02:33:04;0.60;;;0.60;;
11933;SDS011;6026;48.784;9.198;2023-07-20T02:35:31;0.80;;;0.80;;
11933;SDS011;6026;48.784;9.198;2023-07-20T02:37:57;0.80;;;0.80;;
11933;SDS011;6026;48.784;9.198;2023-07-20T02:40:23;1.00;;;1.00;;
11933;SDS011;6026;48.784;9.198;2023-07-20T02:42:48;0.87;;;0.87;;
11933;SDS011;6026;48.784;9.198;2023-07-20T02:45:14;0.70;;;0.70;;
11933;SDS011;6026;48.784;9.198;2023-07-20T02:47:40;0.90;;;0.90;;
11933;SDS011;6026;48.784;9.198;2023-07-20T02:50:06;1.07;;;1.07;;
11933;SDS011;6026;48.784;9.198;2023-07-20T02:52:32;0.90;;;0.90;;
11933;SDS011;6026;48.784;9.198;2023-07-20T02:54:58;0.90;;;0.90;;
11933;SDS011;6026;48.784;9.198;2023-07-20T02:57:24;0.63;;;0.63;;
11933;SDS011;6026;48.784;9.198;2023-07-20T02:59:50;0.80;;;0.80;;
11933;SDS011;6026;48.784;9.198;2023-07-20T03:02:15;0.77;;;0.77;;
11933;SDS011;6026;48.784;9.198;2023-07-20T03:04:41;0.90;;;0.90;;
11933;SDS011;6026;48.784;9.198;2023-07-20T03:07:07;0.90;;;0.90;;
11933;SDS011;6026;48.784;9.198;2023-07-20T03:09:32;0.70;;;0.70;;
11933;SDS011;6026;48.784;9.198;2023-07-20T03:11:58;0.70;;;0.70;;
11933;SDS011;6026;48.784;9.198;2023-07-20T03:14:24;0.80;;;0.80;;
11933;SDS011;6026;48.784;9.198;2023-07-20T03:16:49;0.83;;;0.83;;
11933;SDS011;6026;48.784;9.198;2023-07-20T03:19:16;0.80;;;0.80;;
11933;SDS011;6026;48.784;9.198;2023-07-20T03:21:42;0.80;;;0.80;;
11933;SDS011;6026;48.784;9.198;2023-07-20T03:24:07;0.73;;;0.73;;
11933;SDS011;6026;48.784;9.198;2023-07-20T03:26:34;0.70;;;0.70;;
11933;SDS011;6026;48.784;9.198;2023-07-20T03:29:00;0.90;;;0.90;;
11933;SDS011;6026;48.784;9.198;2023-07-20T03:31:26;0.80;;;0.80;;
11933;SDS011;6026;48.784;9.198;2023-07-20T03:33:51;0.67;;;0.67;;
11933;SDS011;6026;48.784;9.198;2023-07-20T03:36:17;0.70;;;0.70;;
11933;SDS011;6026;48.784;9.198;2023-07-20T03:38:43;0.70;;;0.70;;
11933;SDS011;6026;48.784;9.198;2023-07-20T03:41:08;0.90;;;0.90;;
11933;SDS011;6026;48.784;9.198;2023-07-20T03:43:34;0.70;;;0.70;;
11933;SDS011;6026;48.784;9.198;2023-07-20T03:46:00;0.80;;;0.80;;
11933;SDS011;6026;48.784;9.198;2023-07-20T03:48:25;1.00;;;1.00;;
11933;SDS011;6026;48.784;9.198;2023-07-20T03:50:52;0.60;;;0.60;;
11933;SDS011;6026;48.784;9.198;2023-07-20T03:53:18;0.90;;;0.90;;
11933;SDS011;6026;48.784;9.198;2023-07-20T03:55:48;0.70;;;0.70;;
11933;SDS011;6026;48.784;9.198;2023-07-20T03:58:15;0.80;;;0.80;;
11933;SDS011;6026;48.784;9.198;2023-07-20T04:00:50;0.67;;;0.67;;
11933;SDS011;6026;48.784;9.198;2023-07-20T04:03:17;0.67;;;0.67;;
11933;SDS011;6026;48.784;9.198;2023-07-20T04:05:43;0.67;;;0.67;;
11933;SDS011;6026;48.784;9.198;2023-07-20T04:08:09;0.80;;;0.80;;
11933;SDS011;6026;48.784;9.198;2023-07-20T04:10:38;0.83;;;0.83;;
11933;SDS011;6026;48.784;9.198;2023-07-20T04:13:04;0.60;;;0.60;;
11933;SDS011;6026;48.784;9.198;2023-07-20T04:15:31;0.60;;;0.60;;
11933;SDS011;6026;48.784;9.198;2023-07-20T04:17:56;0.60;;;0.60;;
11933;SDS011;6026;48.784;9.198;2023-07-20T04:20:25;0.77;;;0.77;;
11933;SDS011;6026;48.784;9.198;2023-07-20T04:22:50;0.60;;;0.60;;
11933;SDS011;6026;48.784;9.198;2023-07-20T04:25:17;0.80;;;0.80;;
11933;SDS011;6026;48.784;9.198;2023-07-20T04:27:43;0.70;;;0.70;;
11933;SDS011;6026;48.784;9.198;2023-07-20T04:30:09;0.77;;;0.77;;
11933;SDS011;6026;48.784;9.198;2023-07-20T04:32:36;0.50;;;0.50;;
11933;SDS011;6026;48.784;9.198;2023-07-20T04:35:05;0.67;;;0.67;;
11933;SDS011;6026;48.784;9.198;2023-07-20T04:37:32;0.80;;;0.80;;
11933;SDS011;6026;48.784;9.198;2023-07-20T04:39:58;0.70;;;0.70;;
11933;SDS011;6026;48.784;9.198;2023-07-20T04:42:23;0.80;;;0.80;;
11933;SDS011;6026;48.784;9.198;2023-07-20T04:44:49;0.67;;;0.67;;
11933;SDS011;6026;48.784;9.198;2023-07-20T04:47:14;0.70;;;0.70;;
11933;SDS011;6026;48.784;9.198;2023-07-20T04:49:40;0.67;;;0.67;;
11933;SDS011;6026;48.784;9.198;2023-07-20T04:52:07;0.67;;;0.67;;
11933;SDS011;6026;48.784;9.198;2023-07-20T04:54:33;0.70;;;0.70;;
11933;SDS011;6026;48.784;9.198;2023-07-20T04:56:58;0.70;;;0.70;;
11933;SDS011;6026;48.784;9.198;2023-07-20T04:59:24;0.50;;;0.50;;
11933;SDS011;6026;48.784;9.198;2023-07-20T05:01:49;0.90;;;0.90;;
11933;SDS011;6026;48.784;9.198;2023-07-20T05:04:15;0.50;;;0.50;;
11933;SDS011;6026;48.784;9.198;2023-07-20T05:06:40;0.60;;;0.60;;
11933;SDS011;6026;48.784;9.198;2023-07-20T05:09:06;0.80;;;0.80;;
11933;SDS011;6026;48.784;9.198;2023-07-20T05:11:32;0.70;;;0.70;;
11933;SDS011;6026;48.784;9.198;2023-07-20T05:13:58;0.67;;;0.67;;
11933;SDS011;6026;48.784;9.198;2023-07-20T05:16:24;0.63;;;0.63;;
11933;SDS011;6026;48.784;9.198;2023-07-20T05:18:50;0.70;;;0.70;;
11933;SDS011;6026;48.784;9.198;2023-07-20T05:21:15;0.70;;;0.70;;
11933;SDS011;6026;48.784;9.198;2023-07-20T05:23:41;0.60;;;0.60;;
11933;SDS011;6026;48.784;9.198;2023-07-20T05:26:06;0.53;;;0.53;;
11933;SDS011;6026;48.784;9.198;2023-07-20T05:28:34;0.57;;;0.57;;
11933;SDS011;6026;48.784;9.198;2023-07-20T05:31:01;0.70;;;0.70;;
11933;SDS011;6026;48.784;9.198;2023-07-20T05:33:28;0.60;;;0.60;;
11933;SDS011;6026;48.784;9.198;2023-07-20T05:35:53;0.67;;;0.67;;
11933;SDS011;6026;48.784;9.198;2023-07-20T05:38:19;0.77;;;0.77;;
11933;SDS011;6026;48.784;9.198;2023-07-20T05:40:45;0.83;;;0.83;;
11933;SDS011;6026;48.784;9.198;2023-07-20T05:43:11;0.43;;;0.43;;
11933;SDS011;6026;48.784;9.198;2023-07-20T05:45:37;0.60;;;0.60;;
11933;SDS011;6026;48.784;9.198;2023-07-20T05:48:06;0.80;;;0.80;;
11933;SDS011;6026;48.784;9.198;2023-07-20T05:50:34;0.70;;;0.70;;
11933;SDS011;6026;48.784;9.198;2023-07-20T05:53:00;0.50;;;0.50;;
11933;SDS011;6026;48.784;9.198;2023-07-20T05:55:25;0.60;;;0.60;;
11933;SDS011;6026;48.784;9.198;2023-07-20T05:57:51;0.80;;;0.80;;
11933;SDS011;6026;48.784;9.198;2023-07-20T06:00:17;0.73;;;0.73;;
11933;SDS011;6026;48.784;9.198;2023-07-20T06:02:44;0.53;;;0.53;;
11933;SDS011;6026;48.784;9.198;2023-07-20T06:05:09;0.80;;;0.80;;
11933;SDS011;6026;48.784;9.198;2023-07-20T06:07:38;0.67;;;0.67;;
11933;SDS011;6026;48.784;9.198;2023-07-20T06:10:04;0.67;;;0.67;;
11933;SDS011;6026;48.784;9.198;2023-07-20T06:12:31;0.73;;;0.73;;
11933;SDS011;6026;48.784;9.198;2023-07-20T06:14:57;0.80;;;0.80;;
11933;SDS011;6026;48.784;9.198;2023-07-20T06:17:23;0.50;;;0.50;;
11933;SDS011;6026;48.784;9.198;2023-07-20T06:19:48;0.70;;;0.70;;
11933;SDS011;6026;48.784;9.198;2023-07-20T06:22:14;0.70;;;0.70;;
11933;SDS011;6026;48.784;9.198;2023-07-20T06:24:40;0.80;;;0.80;;
11933;SDS011;6026;48.784;9.198;2023-07-20T06:27:06;0.77;;;0.77;;
11933;SDS011;6026;48.784;9.198;2023-07-20T06:29:31;0.70;;;0.70;;
11933;SDS011;6026;48.784;9.198;2023-07-20T06:31:57;0.80;;;0.80;;
11933;SDS011;6026;48.784;9.198;2023-07-20T06:34:22;1.00;;;1.00;;
11933;SDS011;6026;48.784;9.198;2023-07-20T06:36:48;0.90;;;0.90;;
11933;SDS011;6026;48.784;9.198;2023-07-20T06:39:14;0.90;;;0.90;;
11933;SDS011;6026;48.784;9.198;2023-07-20T06:41:39;0.98;;;0.98;;
11933;SDS011;6026;48.784;9.198;2023-07-20T06:44:05;1.00;;;1.00;;
11933;SDS011;6026;48.784;9.198;2023-07-20T06:46:31;1.00;;;1.00;;
11933;SDS011;6026;48.784;9.198;2023-07-20T06:48:56;1.10;;;1.10;;
11933;SDS011;6026;48.784;9.198;2023-07-20T06:51:22;1.10;;;1.10;;
11933;SDS011;6026;48.784;9.198;2023-07-20T06:53:47;1.10;;;1.10;;
11933;SDS011;6026;48.784;9.198;2023-07-20T06:56:13;1.17;;;1.17;;
11933;SDS011;6026;48.784;9.198;2023-07-20T06:58:39;1.20;;;1.20;;
11933;SDS011;6026;48.784;9.198;2023-07-20T07:01:08;1.30;;;1.30;;
11933;SDS011;6026;48.784;9.198;2023-07-20T07:03:34;1.20;;;1.20;;
11933;SDS011;6026;48.784;9.198;2023-07-20T07:05:59;1.30;;;1.30;;
11933;SDS011;6026;48.784;9.198;2023-07-20T07:08:25;1.15;;;1.15;;
11933;SDS011;6026;48.784;9.198;2023-07-20T07:10:51;1.10;;;1.10;;
11933;SDS011;6026;48.784;9.198;2023-07-20T07:13:17;1.30;;;1.30;;
11933;SDS011;6026;48.784;9.198;2023-07-20T07:15:44;1.30;;;1.30;;
11933;SDS011;6026;48.784;9.198;2023-07-20T07:18:10;1.20;;;1.20;;
11933;SDS011;6026;48.784;9.198;2023-07-20T07:20:35;1.30;;;1.30;;
11933;SDS011;6026;48.784;9.198;2023-07-20T07:23:01;1.40;;;1.40;;
11933;SDS011;6026;48.784;9.198;2023-07-20T07:25:27;1.50;;;1.50;;
11933;SDS011;6026;48.784;9.198;2023-07-20T07:27:52;1.60;;;1.60;;
11933;SDS011;6026;48.784;9.198;2023-07-20T07:30:18;1.50;;;1.50;;
11933;SDS011;6026;48.784;9.198;2023-07-20T07:32:44;1.60;;;1.60;;
11933;SDS011;6026;48.784;9.198;2023-07-20T07:35:10;1.90;;;1.80;;
11933;SDS011;6026;48.784;9.198;2023-07-20T07:37:36;2.00;;;1.90;;
11933;SDS011;6026;48.784;9.198;2023-07-20T07:40:02;2.00;;;1.90;;
11933;SDS011;6026;48.784;9.198;2023-07-20T07:42:28;2.00;;;1.90;;
11933;SDS011;6026;48.784;9.198;2023-07-20T07:44:54;1.98;;;1.88;;
11933;SDS011;6026;48.784;9.198;2023-07-20T07:47:20;1.90;;;1.80;;
11933;SDS011;6026;48.784;9.198;2023-07-20T07:49:45;1.90;;;1.80;;
11933;SDS011;6026;48.784;9.198;2023-07-20T07:52:11;1.83;;;1.73;;
11933;SDS011;6026;48.784;9.198;2023-07-20T07:54:37;1.85;;;1.75;;
11933;SDS011;6026;48.784;9.198;2023-07-20T07:57:02;2.00;;;1.90;;
11933;SDS011;6026;48.784;9.198;2023-07-20T07:59:28;1.92;;;1.83;;
11933;SDS011;6026;48.784;9.198;2023-07-20T08:01:56;2.00;;;1.90;;
11933;SDS011;6026;48.784;9.198;2023-07-20T08:04:23;1.90;;;1.80;;
11933;SDS011;6026;48.784;9.198;2023-07-20T08:06:49;1.80;;;1.70;;
11933;SDS011;6026;48.784;9.198;2023-07-20T08:09:15;1.80;;;1.70;;
11933;SDS011;6026;48.784;9.198;2023-07-20T08:11:40;1.50;;;1.50;;
11933;SDS011;6026;48.784;9.198;2023-07-20T08:14:06;1.40;;;1.40;;
11933;SDS011;6026;48.784;9.198;2023-07-20T08:16:31;1.30;;;1.30;;
11933;SDS011;6026;48.784;9.198;2023-07-20T08:18:57;1.27;;;1.27;;
11933;SDS011;6026;48.784;9.198;2023-07-20T08:21:22;1.25;;;1.25;;
11933;SDS011;6026;48.784;9.198;2023-07-20T08:23:48;1.25;;;1.25;;
11933;SDS011;6026;48.784;9.198;2023-07-20T08:26:14;1.30;;;1.30;;
11933;SDS011;6026;48.784;9.198;2023-07-20T08:28:39;1.30;;;1.30;;
11933;SDS011;6026;48.784;9.198;2023-07-20T08:31:05;1.20;;;1.20;;
11933;SDS011;6026;48.784;9.198;2023-07-20T08:33:32;1.20;;;1.20;;
11933;SDS011;6026;48.784;9.198;2023-07-20T08:35:58;1.20;;;1.20;;
11933;SDS011;6026;48.784;9.198;2023-07-20T08:38:26;1.23;;;1.23;;
11933;SDS011;6026;48.784;9.198;2023-07-20T08:40:51;1.20;;;1.20;;
11933;SDS011;6026;48.784;9.198;2023-07-20T08:43:19;1.20;;;1.20;;
11933;SDS011;6026;48.784;9.198;2023-07-20T08:45:46;1.15;;;1.15;;
11933;SDS011;6026;48.784;9.198;2023-07-20T08:48:13;1.20;;;1.20;;
11933;SDS011;6026;48.784;9.198;2023-07-20T08:50:40;1.20;;;1.20;;
11933;SDS011;6026;48.784;9.198;2023-07-20T08:53:07;1.30;;;1.30;;
11933;SDS011;6026;48.784;9.198;2023-07-20T08:55:34;1.40;;;1.40;;
11933;SDS011;6026;48.784;9.198;2023-07-20T08:58:01;1.40;;;1.40;;
11933;SDS011;6026;48.784;9.198;2023-07-20T09:00:30;1.50;;;1.50;;
11933;SDS011;6026;48.784;9.198;2023-07-20T09:02:55;1.50;;;1.50;;
11933;SDS011;6026;48.784;9.198;2023-07-20T09:05:23;1.50;;;1.50;;
11933;SDS011;6026;48.784;9.198;2023-07-20T09:07:50;1.60;;;1.60;;
11933;SDS011;6026;48.784;9.198;2023-07-20T09:10:16;1.90;;;1.80;;
11933;SDS011;6026;48.784;9.198;2023-07-20T09:12:43;1.60;;;1.60;;
11933;SDS011;6026;48.784;9.198;2023-07-20T09:15:09;1.73;;;1.70;;
11933;SDS011;6026;48.784;9.198;2023-07-20T09:17:36;1.88;;;1.77;;
11933;SDS011;6026;48.784;9.198;2023-07-20T09:20:05;1.50;;;1.50;;
11933;SDS011;6026;48.784;9.198;2023-07-20T09:22:33;1.40;;;1.40;;
11933;SDS011;6026;48.784;9.198;2023-07-20T09:24:59;1.30;;;1.30;;
11933;SDS011;6026;48.784;9.198;2023-07-20T09:27:34;1.30;;;1.30;;
11933;SDS011;6026;48.784;9.198;2023-07-20T09:30:02;1.30;;;1.30;;
11933;SDS011;6026;48.784;9.198;2023-07-20T09:32:28;1.40;;;1.40;;
11933;SDS011;6026;48.784;9.198;2023-07-20T09:34:54;1.48;;;1.48;;
11933;SDS011;6026;48.784;9.198;2023-07-20T09:37:20;1.40;;;1.40;;
11933;SDS011;6026;48.784;9.198;2023-07-20T09:39:47;1.20;;;1.20;;
11933;SDS011;6026;48.784;9.198;2023-07-20T09:42:14;1.30;;;1.30;;
11933;SDS011;6026;48.784;9.198;2023-07-20T09:44:40;1.20;;;1.20;;
11933;SDS011;6026;48.784;9.198;2023-07-20T09:47:08;1.10;;;1.10;;
11933;SDS011;6026;48.784;9.198;2023-07-20T09:49:38;1.10;;;1.10;;
11933;SDS011;6026;48.784;9.198;2023-07-20T09:52:05;1.10;;;1.10;;
11933;SDS011;6026;48.784;9.198;2023-07-20T09:54:33;1.20;;;1.20;;
11933;SDS011;6026;48.784;9.198;2023-07-20T09:57:08;1.30;;;1.30;;
11933;SDS011;6026;48.784;9.198;2023-07-20T09:59:35;1.30;;;1.30;;
11933;SDS011;6026;48.784;9.198;2023-07-20T10:02:01;1.25;;;1.25;;
11933;SDS011;6026;48.784;9.198;2023-07-20T10:04:33;1.20;;;1.20;;
11933;SDS011;6026;48.784;9.198;2023-07-20T10:07:00;1.20;;;1.20;;
11933;SDS011;6026;48.784;9.198;2023-07-20T10:09:30;1.20;;;1.20;;
11933;SDS011;6026;48.784;9.198;2023-07-20T10:11:57;1.15;;;1.15;;
11933;SDS011;6026;48.784;9.198;2023-07-20T10:14:25;1.20;;;1.20;;
11933;SDS011;6026;48.784;9.198;2023-07-20T10:16:58;1.20;;;1.20;;
11933;SDS011;6026;48.784;9.198;2023-07-20T10:19:42;1.30;;;1.30;;
11933;SDS011;6026;48.784;9.198;2023-07-20T10:22:19;1.30;;;1.30;;
11933;SDS011;6026;48.784;9.198;2023-07-20T10:24:50;1.30;;;1.30;;
11933;SDS011;6026;48.784;9.198;2023-07-20T10:27:19;1.30;;;1.30;;
11933;SDS011;6026;48.784;9.198;2023-07-20T10:29:45;1.30;;;1.30;;
11933;SDS011;6026;48.784;9.198;2023-07-20T10:32:12;1.40;;;1.40;;
11933;SDS011;6026;48.784;9.198;2023-07-20T10:34:38;1.25;;;1.25;;
11933;SDS011;6026;48.784;9.198;2023-07-20T10:37:04;1.20;;;1.20;;
11933;SDS011;6026;48.784;9.198;2023-07-20T10:39:31;1.20;;;1.20;;
11933;SDS011;6026;48.784;9.198;2023-07-20T10:42:06;1.20;;;1.20;;
11933;SDS011;6026;48.784;9.198;2023-07-20T10:44:32;1.20;;;1.20;;
11933;SDS011;6026;48.784;9.198;2023-07-20T10:47:02;1.20;;;1.20;;
11933;SDS011;6026;48.784;9.198;2023-07-20T10:49:33;1.20;;;1.20;;
11933;SDS011;6026;48.784;9.198;2023-07-20T10:52:03;1.20;;;1.20;;
11933;SDS011;6026;48.784;9.198;2023-07-20T10:56:56;1.30;;;1.30;;
11933;SDS011;6026;48.784;9.198;2023-07-20T11:01:48;1.20;;;1.20;;
11933;SDS011;6026;48.784;9.198;2023-07-20T11:04:16;1.20;;;1.20;;
11933;SDS011;6026;48.784;9.198;2023-07-20T11:06:45;1.23;;;1.23;;
11933;SDS011;6026;48.784;9.198;2023-07-20T11:09:12;1.20;;;1.20;;
11933;SDS011;6026;48.784;9.198;2023-07-20T11:11:45;1.30;;;1.30;;
11933;SDS011;6026;48.784;9.198;2023-07-20T11:14:25;1.38;;;1.38;;
11933;SDS011;6026;48.784;9.198;2023-07-20T11:16:51;1.40;;;1.40;;
11933;SDS011;6026;48.784;9.198;2023-07-20T11:21:45;1.40;;;1.40;;
11933;SDS011;6026;48.784;9.198;2023-07-20T11:24:14;1.40;;;1.40;;
11933;SDS011;6026;48.784;9.198;2023-07-20T11:26:40;1.30;;;1.30;;
11933;SDS011;6026;48.784;9.198;2023-07-20T11:29:06;1.30;;;1.30;;
11933;SDS011;6026;48.784;9.198;2023-07-20T11:31:34;1.30;;;1.30;;
11933;SDS011;6026;48.784;9.198;2023-07-20T11:34:01;1.30;;;1.30;;
11933;SDS011;6026;48.784;9.198;2023-07-20T11:36:27;1.20;;;1.20;;
11933;SDS011;6026;48.784;9.198;2023-07-20T11:38:53;1.27;;;1.27;;
11933;SDS011;6026;48.784;9.198;2023-07-20T11:41:19;1.30;;;1.30;;
11933;SDS011;6026;48.784;9.198;2023-07-20T11:43:45;1.20;;;1.20;;
11933;SDS011;6026;48.784;9.198;2023-07-20T11:46:10;1.20;;;1.20;;
11933;SDS011;6026;48.784;9.198;2023-07-20T11:48:36;1.20;;;1.20;;
11933;SDS011;6026;48.784;9.198;2023-07-20T11:51:02;1.20;;;1.20;;
11933;SDS011;6026;48.784;9.198;2023-07-20T11:53:27;1.20;;;1.20;;
11933;SDS011;6026;48.784;9.198;2023-07-20T11:55:54;1.20;;;1.20;;
11933;SDS011;6026;48.784;9.198;2023-07-20T11:58:20;1.23;;;1.23;;
11933;SDS011;6026;48.784;9.198;2023-07-20T12:00:46;1.27;;;1.27;;
11933;SDS011;6026;48.784;9.198;2023-07-20T12:03:12;1.30;;;1.30;;
11933;SDS011;6026;48.784;9.198;2023-07-20T12:05:38;1.20;;;1.20;;
11933;SDS011;6026;48.784;9.198;2023-07-20T12:08:04;1.20;;;1.20;;
11933;SDS011;6026;48.784;9.198;2023-07-20T12:10:30;1.20;;;1.20;;
11933;SDS011;6026;48.784;9.198;2023-07-20T12:13:02;1.20;;;1.20;;
11933;SDS011;6026;48.784;9.198;2023-07-20T12:15:28;1.20;;;1.20;;
11933;SDS011;6026;48.784;9.198;2023-07-20T12:17:59;1.30;;;1.30;;
11933;SDS011;6026;48.784;9.198;2023-07-20T12:20:30;1.20;;;1.20;;
11933;SDS011;6026;48.784;9.198;2023-07-20T12:23:01;1.20;;;1.20;;
11933;SDS011;6026;48.784;9.198;2023-07-20T12:25:33;1.20;;;1.20;;
11933;SDS011;6026;48.784;9.198;2023-07-20T12:28:04;1.20;;;1.20;;
11933;SDS011;6026;48.784;9.198;2023-07-20T12:30:30;1.20;;;1.20;;
11933;SDS011;6026;48.784;9.198;2023-07-20T12:32:56;1.10;;;1.10;;
11933;SDS011;6026;48.784;9.198;2023-07-20T12:35:22;1.30;;;1.30;;
11933;SDS011;6026;48.784;9.198;2023-07-20T12:37:47;1.20;;;1.20;;
11933;SDS011;6026;48.784;9.198;2023-07-20T12:40:14;1.20;;;1.20;;
11933;SDS011;6026;48.784;9.198;2023-07-20T12:42:39;1.20;;;1.20;;
11933;SDS011;6026;48.784;9.198;2023-07-20T12:45:05;1.20;;;1.20;;
11933;SDS011;6026;48.784;9.198;2023-07-20T12:47:31;1.20;;;1.20;;
11933;SDS011;6026;48.784;9.198;2023-07-20T12:49:57;1.13;;;1.13;;
11933;SDS011;6026;48.784;9.198;2023-07-20T12:52:22;1.20;;;1.20;;
11933;SDS011;6026;48.784;9.198;2023-07-20T12:54:48;1.20;;;1.20;;
11933;SDS011;6026;48.784;9.198;2023-07-20T12:57:13;1.20;;;1.20;;
11933;SDS011;6026;48.784;9.198;2023-07-20T12:59:39;1.20;;;1.20;;
11933;SDS011;6026;48.784;9.198;2023-07-20T13:02:05;1.10;;;1.10;;
11933;SDS011;6026;48.784;9.198;2023-07-20T13:04:31;1.10;;;1.10;;
11933;SDS011;6026;48.784;9.198;2023-07-20T13:06:56;1.30;;;1.30;;
11933;SDS011;6026;48.784;9.198;2023-07-20T13:09:23;1.20;;;1.20;;
11933;SDS011;6026;48.784;9.198;2023-07-20T13:11:50;1.10;;;1.10;;
11933;SDS011;6026;48.784;9.198;2023-07-20T13:14:17;1.10;;;1.10;;
11933;SDS011;6026;48.784;9.198;2023-07-20T13:16:42;1.17;;;1.17;;
11933;SDS011;6026;48.784;9.198;2023-07-20T13:19:08;1.23;;;1.23;;
11933;SDS011;6026;48.784;9.198;2023-07-20T13:21:33;1.20;;;1.20;;
11933;SDS011;6026;48.784;9.198;2023-07-20T13:23:59;1.10;;;1.10;;
11933;SDS011;6026;48.784;9.198;2023-07-20T13:26:24;1.10;;;1.10;;
11933;SDS011;6026;48.784;9.198;2023-07-20T13:28:50;1.10;;;1.10;;
11933;SDS011;6026;48.784;9.198;2023-07-20T13:31:16;1.10;;;1.10;;
11933;SDS011;6026;48.784;9.198;2023-07-20T13:33:42;1.20;;;1.20;;
11933;SDS011;6026;48.784;9.198;2023-07-20T13:36:08;1.10;;;1.10;;
11933;SDS011;6026;48.784;9.198;2023-07-20T13:38:33;1.10;;;1.10;;
11933;SDS011;6026;48.784;9.198;2023-07-20T13:40:59;1.08;;;1.08;;
11933;SDS011;6026;48.784;9.198;2023-07-20T13:43:24;1.15;;;1.15;;
11933;SDS011;6026;48.784;9.198;2023-07-20T13:45:50;1.10;;;1.10;;
11933;SDS011;6026;48.784;9.198;2023-07-20T13:48:15;1.00;;;1.00;;
11933;SDS011;6026;48.784;9.198;2023-07-20T13:50:44;1.05;;;1.05;;
11933;SDS011;6026;48.784;9.198;2023-07-20T13:53:11;1.10;;;1.10;;
11933;SDS011;6026;48.784;9.198;2023-07-20T13:55:37;1.10;;;1.10;;
11933;SDS011;6026;48.784;9.198;2023-07-20T13:58:03;1.13;;;1.13;;
11933;SDS011;6026;48.784;9.198;2023-07-20T14:00:29;1.20;;;1.20;;
11933;SDS011;6026;48.784;9.198;2023-07-20T14:02:58;1.10;;;1.10;;
11933;SDS011;6026;48.784;9.198;2023-07-20T14:05:24;1.10;;;1.10;;
11933;SDS011;6026;48.784;9.198;2023-07-20T14:07:50;1.10;;;1.10;;
11933;SDS011;6026;48.784;9.198;2023-07-20T14:10:16;1.10;;;1.10;;
11933;SDS011;6026;48.784;9.198;2023-07-20T14:12:42;1.10;;;1.10;;
11933;SDS011;6026;48.784;9.198;2023-07-20T14:15:07;1.10;;;1.10;;
11933;SDS011;6026;48.784;9.198;2023-07-20T14:17:34;1.10;;;1.10;;
11933;SDS011;6026;48.784;9.198;2023-07-20T14:20:00;1.00;;;1.00;;
11933;SDS011;6026;48.784;9.198;2023-07-20T14:22:25;1.10;;;1.10;;
11933;SDS011;6026;48.784;9.198;2023-07-20T14:24:51;1.08;;;1.08;;
11933;SDS011;6026;48.784;9.198;2023-07-20T14:27:17;1.10;;;1.10;;
11933;SDS011;6026;48.784;9.198;2023-07-20T14:29:42;1.02;;;1.02;;
11933;SDS011;6026;48.784;9.198;2023-07-20T14:32:08;1.08;;;1.08;;
11933;SDS011;6026;48.784;9.198;2023-07-20T14:34:34;1.00;;;1.00;;
11933;SDS011;6026;48.784;9.198;2023-07-20T14:36:59;1.02;;;1.02;;
11933;SDS011;6026;48.784;9.198;2023-07-20T14:39:27;1.10;;;1.10;;
11933;SDS011;6026;48.784;9.198;2023-07-20T14:41:53;1.02;;;1.02;;
11933;SDS011;6026;48.784;9.198;2023-07-20T14:44:18;0.95;;;0.95;;
11933;SDS011;6026;48.784;9.198;2023-07-20T14:46:45;1.00;;;1.00;;
11933;SDS011;6026;48.784;9.198;2023-07-20T14:49:11;1.08;;;1.08;;
11933;SDS011;6026;48.784;9.198;2023-07-20T14:51:36;1.00;;;1.00;;
11933;SDS011;6026;48.784;9.198;2023-07-20T14:54:08;1.08;;;1.08;;
11933;SDS011;6026;48.784;9.198;2023-07-20T14:56:34;1.13;;;1.13;;
11933;SDS011;6026;48.784;9.198;2023-07-20T14:59:00;1.05;;;1.05;;
11933;SDS011;6026;48.784;9.198;2023-07-20T15:01:26;1.08;;;1.08;;
11933;SDS011;6026;48.784;9.198;2023-07-20T15:03:51;1.10;;;1.10;;
11933;SDS011;6026;48.784;9.198;2023-07-20T15:06:18;1.02;;;1.02;;
11933;SDS011;6026;48.784;9.198;2023-07-20T15:08:44;1.05;;;1.05;;
11933;SDS011;6026;48.784;9.198;2023-07-20T15:11:10;1.02;;;1.02;;